Terminal Aerodrome Forecast
Issued by NWS Sioux Falls, SD

Home | Current Version | Previous Version | Graphics & Text | Print | Product List | Glossary On
Versions: 1 2 3 4 5 6 7 8 9 10 11 12 13 14 15 16 17 18
000
FTUS43 KFSD 292331
TAFHON
TAF
KHON 292331Z 3000/3024 35008KT P6SM SCT035 BKN200
     FM300300 36011KT P6SM SKC
     FM301000 35005KT 4SM BR SKC
     FM301400 36005KT P6SM SKC
     FM302000 15010KT P6SM SCT035=

USA.gov is the U.S. government's official web portal to all federal, state and local government web resources and services.